COOK1: Arkansas River Nr Coolidge, KS

                                SHEF ID:       COOK1     ARKANSAS R NR COOLIDGE, KS
STATION TYPE:
Regulating: Stage = 8.00, Flow = 2050

PRECIP STAGE STAGE(2) RIV-FLOW WTR-TEMP CONDUCT BAT-LOAD
in ft ft cfs F umho/cm volt
Ccp-Rev Ccp-Rev Ccp-Rev Ccp-Rev Ccp-Rev Ccp-Rev Ccp-Rev
(America/Chicago)
07/08 00:00 0.09 2.73 2.89 75 68.90 5391 12.95
07/08 01:00 0.07 2.76 2.92 78 68.47 5101 12.89
07/08 02:00 0.01 2.72 2.88 74 67.86 5279 12.89
07/08 03:00 0.00 2.70 2.86 72 67.05 5540 12.89
07/08 04:00 0.00 2.68 2.82 70 66.18 5481 12.89
07/08 05:00 0.00 2.69 2.85 71 65.50 5429 12.83
07/08 06:00 0.00 2.70 2.85 72 64.87 5405 12.83
07/08 07:00 0.00 2.70 2.86 72 64.29 5364 12.77
07/08 08:00 0.00 2.72 2.87 74 64.13 5364 12.77
07/08 09:00 0.00 2.72 2.87 74 64.71 5380 12.83
07/08 10:00 0.00 2.74 2.88 76 66.22 5362 13.12
07/08 11:00 0.00 2.75 2.90 77 68.43 5326 13.59
07/08 12:00 0.00 2.67 2.84 69 71.19 5310 13.71
07/08 13:00 0.00 2.63 2.75 65 74.37 5400 13.77
07/08 14:00 0.00 2.64 2.80 66 76.93 5409 13.83
07/08 15:00 0.00 2.65 2.81 67 79.11 5404 13.83
07/08 16:00 0.00 2.68 2.80 70 79.88 5332 13.83
07/08 17:00 0.00 2.70 2.84 72 80.76 5305 13.53
07/08 18:00 0.00 2.71 2.86 73 80.56 5294 13.36
07/08 19:00 0.00 2.72 2.88 74 79.52 5170 13.24
07/08 20:00 0.00 2.73 2.86 75 78.35 5258 13.18
07/08 21:00 0.00 2.71 2.86 73 77.32 5270 13.12
07/08 22:00 0.00 2.69 2.82 71 76.23 5310 13.00
07/08 23:00 ---- ---- ---- ---- ---- ---- ----
Data processed at Tue 09Jul2024 04:30 GMT

Parsing this webpage?

Checkout our new Data API! CWMSDataAPI (CDA)

Timeseries IDs (TSIDs)

TSIDs used from left to right in the data table
COOL.Precip-Inc.Total.1Hour.1Hour.Ccp-Rev
COOL.Stage.Inst.1Hour.0.Ccp-Rev
COOL.Stage-Alt.Inst.1Hour.0.Ccp-Rev
COOL.Flow.Inst.1Hour.0.Ccp-Rev
COOL.Temp-Water.Inst.1Hour.0.Ccp-Rev
COOL.Cond.Inst.1Hour.0.Ccp-Rev
COOL.Volt-Battery Load.Inst.1Hour.0.Ccp-Rev

                            

All information presented herein is the property of the government of the United States of America and may be revised or deleted at any time without prior notice. Dissemination of this information without the expressed written consent of the Public Affairs Office, Tulsa District U.S. Army Corps of Engineers is strictly prohibited. These data are gathered electronically and, as presented, have NOT undergone any form of quality control. These data are NOT guaranteed to be valid or correct.